This is the latest recevied weather packets stored in our database for station/object BMCB-38. If no packets are shown the sender has not sent any weather packets the latest 10 day(s).
| Time | Temp. | Humidity | Pressure | Rain* | Wind** | Luminosity | Snow |
|---|---|---|---|---|---|---|---|
| 1777151436 | 11.11° C | 51% | 1022.3 hPa | 0 mm | - | 0 W/m² | - |
| 1777149038 | 11.67° C | 53% | 1022 hPa | 0 mm | - | 0 W/m² | - |
| 1777147840 | 12.22° C | 50% | 1021.9 hPa | 0 mm | - | 0 W/m² | - |
| 1777146036 | 13.33° C | 47% | 1021.6 hPa | 0 mm | - | 0 W/m² | - |
| 1777141234 | 15° C | 38% | 1020.7 hPa | 0 mm | - | 24 W/m² | - |
| 1777140637 | 15.56° C | 37% | 1020.8 hPa | 0 mm | - | 36 W/m² | - |
| 1777132837 | 17.22° C | 29% | 1020.2 hPa | 0 mm | - | 392 W/m² | - |
| 1777129834 | 16.67° C | 29% | 1020.3 hPa | 0 mm | - | 478 W/m² | - |
| 1777124435 | 16.67° C | 30% | 1020.4 hPa | 0 mm | - | 680 W/m² | - |
| 1777118435 | 15.56° C | 41% | 1020.9 hPa | 0 mm | - | 780 W/m² | - |
| 1777113636 | 12.78° C | 63% | 1021.4 hPa | 0 mm | - | 742 W/m² | - |
| 1777110031 | 11.67° C | 75% | 1021.5 hPa | 0 mm | - | 662 W/m² | - |
| 1777107635 | 10° C | 83% | 1021.6 hPa | 0 mm | - | 594 W/m² | - |
| 1777099234 | 4.44° C | 95% | 1021.8 hPa | 0 mm | - | 94 W/m² | - |
| 1777094435 | 3.89° C | 97% | 1021.4 hPa | 0 mm | - | 30 W/m² | - |
| 1777093237 | 3.89° C | 96% | 1021.5 hPa | 0 mm | - | 16 W/m² | - |
| 1777091435 | 3.89° C | 95% | 1021.3 hPa | 0 mm | - | 0 W/m² | - |
| 1777090236 | 4.44° C | 94% | 1021.1 hPa | 0 mm | - | 0 W/m² | - |
| 1777087836 | 5° C | 91% | 1021.2 hPa | 0 mm | - | 0 W/m² | - |
| 1777085435 | 5.56° C | 89% | 1021.3 hPa | 0 mm | - | 0 W/m² | - |
| 1777084239 | 5.56° C | 89% | 1021.4 hPa | 0 mm | - | 0 W/m² | - |
| 1777077036 | 8.33° C | 74% | 1021.7 hPa | 0 mm | - | 0 W/m² | - |
| 1777075836 | 8.89° C | 73% | 1021.8 hPa | 0 mm | - | 0 W/m² | - |
| 1777068638 | 11.11° C | 62% | 1022.1 hPa | 0 mm | - | 0 W/m² | - |
| 1777065637 | 11.67° C | 59% | 1022.1 hPa | 0 mm | - | 0 W/m² | - |
* Rain latest hour (hover to see other rain measurements)
** Current wind speed in m/s (hover to see current wind gust speed)